Time;durP1;ratioP1;P1;durP2;ratioP2;P2;SDS_P1;SDS_P2;PMS_P1;PMS_P2;Temp;Humidity;BMP_temperature;BMP_pressure;BME280_temperature;BME280_humidity;BME280_pressure;Samples;Min_cycle;Max_cycle;Signal;HPM_P1;HPM_P2
2022/09/21 00:00:38;;;;;;;0.00;0.00;;;17.20;74.90;;;;;;3986439;29;20135;-63
2022/09/21 00:03:20;;;;;;;0.03;0.03;;;17.20;75.00;;;;;;3970686;29;20062;-69
2022/09/21 00:06:02;;;;;;;;;;;17.20;74.90;;;;;;3971647;29;20122;-62
2022/09/21 00:08:26;;;;;;;0.00;0.00;;;17.20;75.00;;;;;;3971316;29;19929;-63
2022/09/21 00:11:08;;;;;;;0.00;0.00;;;17.20;75.00;;;;;;3986223;29;20053;-70
2022/09/21 00:13:32;;;;;;;0.00;0.00;;;17.20;75.10;;;;;;3985616;29;20442;-71
2022/09/21 00:15:55;;;;;;;0.00;0.00;;;17.20;75.10;;;;;;3973165;29;20061;-70
2022/09/21 00:18:37;;;;;;;0.00;0.00;;;17.10;75.00;;;;;;3986268;29;20069;-71
2022/09/21 00:21:19;;;;;;;0.20;0.20;;;17.10;75.00;;;;;;3995877;29;20065;-71
2022/09/21 00:23:43;;;;;;;8.38;0.65;;;17.10;75.00;;;;;;3984369;29;20497;-70
2022/09/21 00:26:11;;;;;;;0.00;0.00;;;17.10;75.00;;;;;;3971727;29;20055;-72
2022/09/21 00:28:54;;;;;;;0.13;0.13;;;17.10;75.00;;;;;;3971559;29;20527;-73
2022/09/21 00:31:17;;;;;;;0.10;0.10;;;17.10;75.00;;;;;;3971263;29;20495;-72
2022/09/21 00:33:59;;;;;;;0.00;0.00;;;17.10;75.00;;;;;;3995825;29;20126;-72
2022/09/21 00:36:41;;;;;;;0.00;0.00;;;17.10;75.00;;;;;;3986723;29;20186;-71
2022/09/21 00:39:23;;;;;;;0.00;0.00;;;17.10;75.00;;;;;;3986334;29;20064;-72
2022/09/21 00:41:46;;;;;;;0.00;0.00;;;17.10;75.00;;;;;;3985675;29;20085;-72
2022/09/21 00:44:27;;;;;;;0.08;0.08;;;17.10;75.10;;;;;;3986550;29;20059;-72
2022/09/21 00:47:13;;;;;;;0.38;0.38;;;17.00;75.00;;;;;;3986036;29;20149;-72
2022/09/21 00:49:57;;;;;;;0.00;0.00;;;17.00;75.00;;;;;;3986657;29;20058;-71
2022/09/21 00:52:22;;;;;;;0.00;0.00;;;17.00;75.10;;;;;;3985826;29;20057;-71
2022/09/21 00:55:10;;;;;;;0.35;0.35;;;17.00;75.00;;;;;;3986244;29;20061;-71
2022/09/21 00:57:58;;;;;;;0.00;0.00;;;17.00;75.10;;;;;;3995772;29;20191;-72
2022/09/21 01:00:40;;;;;;;0.00;0.00;;;17.00;75.00;;;;;;3986613;29;20049;-71
2022/09/21 01:03:21;;;;;;;0.00;0.00;;;17.00;75.00;;;;;;3984756;29;20138;-72
2022/09/21 01:05:43;;;;;;;0.10;0.10;;;17.00;75.10;;;;;;3985722;29;20084;-71
2022/09/21 01:08:11;;;;;;;0.00;0.00;;;17.00;75.10;;;;;;3997598;29;20592;-72
2022/09/21 01:11:21;;;;;;;0.00;0.00;;;17.00;75.20;;;;;;3986045;29;20092;-71
2022/09/21 01:13:51;;;;;;;;;;;16.90;75.30;;;;;;3975484;29;20126;-70
2022/09/21 01:16:39;;;;;;;0.00;0.00;;;16.90;75.20;;;;;;3995332;29;19936;-72
2022/09/21 01:19:16;;;;;;;0.00;0.00;;;16.90;76.00;;;;;;3985883;29;20102;-72
2022/09/21 01:22:06;;;;;;;0.05;0.05;;;16.90;75.20;;;;;;3985445;29;20065;-71
2022/09/21 01:24:58;;;;;;;0.00;0.00;;;16.90;75.30;;;;;;3985690;29;20060;-71
2022/09/21 01:27:52;;;;;;;0.00;0.00;;;16.90;75.30;;;;;;3985997;29;20062;-68
2022/09/21 01:30:37;;;;;;;0.00;0.00;;;16.90;75.60;;;;;;3986074;29;20061;-72
2022/09/21 01:33:06;;;;;;;0.00;0.00;;;16.90;75.30;;;;;;3970580;29;20062;-72
2022/09/21 01:35:33;;;;;;;0.00;0.00;;;16.90;75.40;;;;;;3985393;29;20058;-72
2022/09/21 01:38:21;;;;;;;0.00;0.00;;;16.90;75.40;;;;;;3995313;29;20134;-71
2022/09/21 01:40:47;;;;;;;0.10;0.10;;;16.80;75.30;;;;;;3985626;29;20107;-72
2022/09/21 01:43:34;;;;;;;0.00;0.00;;;16.80;75.30;;;;;;3976638;29;20510;-71
2022/09/21 01:46:19;;;;;;;0.00;0.00;;;16.80;75.30;;;;;;3985044;29;20061;-72
2022/09/21 01:48:46;;;;;;;0.00;0.00;;;16.80;75.30;;;;;;3984691;29;20064;-71
2022/09/21 01:51:29;;;;;;;0.40;0.40;;;16.80;75.40;;;;;;3983937;29;20061;-72
2022/09/21 01:53:55;;;;;;;0.00;0.00;;;16.80;75.30;;;;;;3985196;29;20510;-71
2022/09/21 01:56:40;;;;;;;0.00;0.00;;;16.80;75.30;;;;;;3985456;29;20065;-72
2022/09/21 01:59:26;;;;;;;0.00;0.00;;;16.80;75.40;;;;;;3982916;29;20414;-71
2022/09/21 02:02:13;;;;;;;0.10;0.10;;;16.80;75.40;;;;;;3987501;29;20060;-71
2022/09/21 02:04:36;;;;;;;0.00;0.00;;;16.80;75.40;;;;;;3987769;29;20197;-71
2022/09/21 02:06:59;;;;;;;0.00;0.00;;;16.80;75.40;;;;;;3987963;29;20053;-72
2022/09/21 02:09:40;;;;;;;0.00;0.00;;;16.80;75.40;;;;;;3982393;29;20057;-71
2022/09/21 02:12:21;;;;;;;0.00;0.00;;;16.70;75.40;;;;;;3985346;29;20053;-72
2022/09/21 02:14:44;;;;;;;0.00;0.00;;;16.80;75.40;;;;;;3987683;29;20150;-71
2022/09/21 02:17:23;;;;;;;0.00;0.00;;;16.70;75.40;;;;;;3999260;29;20439;-72
2022/09/21 02:20:17;;;;;;;0.00;0.00;;;16.70;75.40;;;;;;3985948;29;20563;-72
2022/09/21 02:23:05;;;;;;;0.00;0.00;;;16.70;75.40;;;;;;3972211;29;20227;-71
2022/09/21 02:25:33;;;;;;;0.00;0.00;;;16.70;75.40;;;;;;3971976;29;20063;-72
2022/09/21 02:27:58;;;;;;;0.00;0.00;;;16.70;75.40;;;;;;3972561;29;20073;-72
2022/09/21 02:30:45;;;;;;;0.20;0.20;;;16.70;75.40;;;;;;3987124;29;20566;-72
2022/09/21 02:33:17;;;;;;;0.03;0.03;;;16.70;75.40;;;;;;3987342;29;20145;-71
2022/09/21 02:36:06;;;;;;;3.00;1.38;;;16.70;75.50;;;;;;3973726;29;20058;-70
2022/09/21 02:38:52;;;;;;;0.00;0.00;;;16.70;75.60;;;;;;3986990;29;20057;-70
2022/09/21 02:41:40;;;;;;;0.20;0.20;;;16.60;75.50;;;;;;3986846;29;20060;-71
2022/09/21 02:44:06;;;;;;;0.00;0.00;;;16.60;76.40;;;;;;3987334;29;20050;-72
2022/09/21 02:46:33;;;;;;;0.00;0.00;;;16.60;75.60;;;;;;3986917;29;20061;-71
2022/09/21 02:49:19;;;;;;;0.00;0.00;;;16.60;75.60;;;;;;3986295;29;20057;-72
2022/09/21 02:51:46;;;;;;;0.00;0.00;;;16.60;75.70;;;;;;3986952;29;20051;-71
2022/09/21 02:54:11;;;;;;;0.00;0.00;;;16.60;75.70;;;;;;3984420;29;20074;-72
2022/09/21 02:56:34;;;;;;;0.00;0.00;;;16.60;75.70;;;;;;3987331;29;20144;-71
2022/09/21 02:59:15;;;;;;;0.30;0.30;;;16.60;75.70;;;;;;3972110;29;20069;-72
2022/09/21 03:01:56;;;;;;;;;;;16.60;75.80;;;;;;3987653;29;20070;-74
2022/09/21 03:04:40;;;;;;;0.00;0.00;;;16.60;75.70;;;;;;3987153;29;19935;-73
2022/09/21 03:07:01;;;;;;;0.00;0.00;;;16.60;75.70;;;;;;3985744;29;20054;-72
2022/09/21 03:09:25;;;;;;;0.00;0.00;;;16.60;75.70;;;;;;3985008;29;20122;-73
2022/09/21 03:11:48;;;;;;;0.00;0.00;;;16.50;75.80;;;;;;3986637;29;20786;-72
2022/09/21 03:14:30;;;;;;;0.00;0.00;;;16.50;75.80;;;;;;3986958;29;20057;-71
2022/09/21 03:17:11;;;;;;;0.00;0.00;;;16.50;75.80;;;;;;3972985;29;20061;-69
2022/09/21 03:19:54;;;;;;;0.00;0.00;;;16.50;75.80;;;;;;3971162;29;20160;-70
2022/09/21 03:22:34;;;;;;;0.00;0.00;;;16.50;75.80;;;;;;3971166;29;20508;-70
2022/09/21 03:24:58;;;;;;;0.15;0.15;;;16.50;75.80;;;;;;3971417;29;20054;-69
2022/09/21 03:27:22;;;;;;;0.00;0.00;;;16.50;75.90;;;;;;3986749;29;20819;-70
2022/09/21 03:29:45;;;;;;;0.00;0.00;;;16.50;75.90;;;;;;3985563;29;20050;-72
2022/09/21 03:32:07;;;;;;;0.10;0.10;;;16.50;75.90;;;;;;3973038;29;20526;-69
2022/09/21 03:34:33;;;;;;;0.10;0.10;;;16.50;76.00;;;;;;3986275;29;20077;-69
2022/09/21 03:36:56;;;;;;;0.00;0.00;;;16.50;75.90;;;;;;3986184;29;20066;-69
2022/09/21 03:39:37;;;;;;;0.00;0.00;;;16.50;75.90;;;;;;3983954;29;20072;-69
2022/09/21 03:42:18;;;;;;;0.00;0.00;;;16.40;75.90;;;;;;3995711;29;20057;-71
2022/09/21 03:44:58;;;;;;;0.00;0.00;;;16.40;75.90;;;;;;3986187;29;20406;-71
2022/09/21 03:47:21;;;;;;;0.00;0.00;;;16.40;75.90;;;;;;3986118;29;20180;-70
2022/09/21 03:50:02;;;;;;;0.00;0.00;;;16.40;75.90;;;;;;3980404;29;20102;-70
2022/09/21 03:52:48;;;;;;;0.00;0.00;;;16.40;75.90;;;;;;3972193;29;20073;-62
2022/09/21 03:55:10;;;;;;;0.00;0.00;;;16.40;76.00;;;;;;3986035;29;20169;-62
2022/09/21 03:57:51;;;;;;;0.00;0.00;;;16.40;76.00;;;;;;3985747;29;20114;-62
2022/09/21 04:00:14;;;;;;;0.00;0.00;;;16.40;76.00;;;;;;3995823;29;20091;-63
2022/09/21 04:02:55;;;;;;;0.00;0.00;;;16.40;76.00;;;;;;3986075;29;20198;-62
2022/09/21 04:05:38;;;;;;;0.30;0.30;;;16.40;76.00;;;;;;3986120;29;20073;-63
2022/09/21 04:08:02;;;;;;;0.00;0.00;;;16.40;76.00;;;;;;3985670;29;20070;-63
2022/09/21 04:10:42;;;;;;;0.00;0.00;;;16.40;76.00;;;;;;3986177;29;20057;-63
2022/09/21 04:13:24;;;;;;;0.30;0.30;;;16.30;76.20;;;;;;3986430;29;20134;-63
2022/09/21 04:15:46;;;;;;;0.00;0.00;;;16.30;76.30;;;;;;3985851;29;20551;-63
2022/09/21 04:18:08;;;;;;;0.00;0.00;;;16.30;76.20;;;;;;3975900;29;20054;-62
2022/09/21 04:20:31;;;;;;;0.10;0.10;;;16.30;76.20;;;;;;3985111;29;20062;-63
2022/09/21 04:22:53;;;;;;;0.00;0.00;;;16.30;76.20;;;;;;3986090;29;20089;-63
2022/09/21 04:25:17;;;;;;;0.00;0.00;;;16.30;76.20;;;;;;3995883;29;20061;-63
2022/09/21 04:27:58;;;;;;;0.22;0.22;;;16.30;76.20;;;;;;3970193;29;20079;-62
2022/09/21 04:30:20;;;;;;;0.00;0.00;;;16.30;76.20;;;;;;3984550;29;20509;-63
2022/09/21 04:32:43;;;;;;;0.00;0.00;;;16.30;76.20;;;;;;3985930;29;20050;-62
2022/09/21 04:35:23;;;;;;;0.03;0.03;;;16.30;76.20;;;;;;3985744;29;20069;-62
2022/09/21 04:37:45;;;;;;;0.85;0.85;;;16.30;76.10;;;;;;3984552;29;20043;-63
2022/09/21 04:40:28;;;;;;;0.00;0.00;;;16.20;76.10;;;;;;3970514;29;20065;-63
2022/09/21 04:42:52;;;;;;;0.00;0.00;;;16.30;76.30;;;;;;3985877;29;20053;-62
2022/09/21 04:45:14;;;;;;;0.00;0.00;;;16.20;76.40;;;;;;3985737;29;20053;-62
2022/09/21 04:47:36;;;;;;;0.10;0.10;;;16.20;76.50;;;;;;3985235;29;20463;-62
2022/09/21 04:49:58;;;;;;;0.00;0.00;;;16.20;76.50;;;;;;3985268;29;20141;-62
2022/09/21 04:52:39;;;;;;;0.10;0.10;;;16.20;76.50;;;;;;3985770;29;20049;-62
2022/09/21 04:55:20;;;;;;;7.97;1.15;;;16.20;76.50;;;;;;3985853;29;20403;-62
2022/09/21 04:58:02;;;;;;;0.00;0.00;;;16.20;76.50;;;;;;3976442;29;20130;-62
2022/09/21 05:00:24;;;;;;;6.93;3.60;;;16.20;76.60;;;;;;3985524;29;20058;-63
2022/09/21 05:03:05;;;;;;;0.00;0.00;;;16.20;76.50;;;;;;3985394;29;20053;-63
2022/09/21 05:05:28;;;;;;;0.00;0.00;;;16.20;76.60;;;;;;3985506;29;20494;-63
2022/09/21 05:07:49;;;;;;;0.00;0.00;;;16.20;76.70;;;;;;3985156;29;20537;-63
2022/09/21 05:10:11;;;;;;;0.00;0.00;;;16.20;76.70;;;;;;3985204;29;20110;-63
2022/09/21 05:12:52;;;;;;;0.08;0.08;;;16.20;76.60;;;;;;3993440;29;20138;-63
2022/09/21 05:15:34;;;;;;;0.00;0.00;;;16.20;76.60;;;;;;3983112;29;20065;-62
2022/09/21 05:17:56;;;;;;;0.00;0.00;;;16.20;76.60;;;;;;3969983;29;20112;-62
2022/09/21 05:20:37;;;;;;;0.00;0.00;;;16.20;76.60;;;;;;3980339;29;20106;-62
2022/09/21 05:23:01;;;;;;;1.65;1.55;;;16.20;76.60;;;;;;3970149;29;20063;-62
2022/09/21 05:25:44;;;;;;;0.03;0.03;;;16.20;76.70;;;;;;3970099;29;20050;-62
2022/09/21 05:28:25;;;;;;;0.00;0.00;;;16.10;76.60;;;;;;3985217;29;20061;-62
2022/09/21 05:31:23;;;;;;;0.08;0.08;;;16.10;76.60;;;;;;3984397;29;20118;-62
2022/09/21 05:34:12;;;;;;;0.00;0.00;;;16.10;76.60;;;;;;3987542;29;20060;-62
2022/09/21 05:37:00;;;;;;;0.00;0.00;;;16.10;76.70;;;;;;3987982;29;20063;-68
2022/09/21 05:39:23;;;;;;;0.00;0.00;;;16.10;76.60;;;;;;3973108;29;20050;-71
2022/09/21 05:42:05;;;;;;;0.00;0.00;;;16.10;76.60;;;;;;3959651;29;20108;-72
2022/09/21 05:44:48;;;;;;;7.35;1.92;;;16.10;76.80;;;;;;3975136;29;20497;-71
2022/09/21 05:47:38;;;;;;;0.00;0.00;;;16.10;77.00;;;;;;3974741;29;20062;-71
2022/09/21 05:50:38;;;;;;;0.10;0.10;;;16.10;78.00;;;;;;3986666;29;20065;-67
2022/09/21 05:53:12;;;;;;;0.30;0.30;;;16.10;77.30;;;;;;3987946;29;20150;-69
2022/09/21 05:55:45;;;;;;;0.00;0.00;;;16.10;77.70;;;;;;3997962;29;20120;-64
2022/09/21 05:58:36;;;;;;;0.00;0.00;;;16.20;78.80;;;;;;3987013;29;20086;-63
2022/09/21 06:01:29;;;;;;;0.38;0.38;;;16.20;77.30;;;;;;3987792;29;20060;-65
2022/09/21 06:03:54;;;;;;;0.00;0.00;;;16.20;76.80;;;;;;3972656;29;20133;-65
2022/09/21 06:06:35;;;;;;;0.40;0.40;;;16.20;76.50;;;;;;3972134;29;20050;-65
2022/09/21 06:09:16;;;;;;;0.38;0.38;;;16.20;77.20;;;;;;3963633;29;20062;-65
2022/09/21 06:11:38;;;;;;;0.00;0.00;;;16.10;76.10;;;;;;3982888;29;20050;-65
2022/09/21 06:14:23;;;;;;;0.00;0.00;;;16.10;76.00;;;;;;3987170;29;20058;-66
2022/09/21 06:17:04;;;;;;;0.05;0.05;;;16.10;76.00;;;;;;3987012;29;20053;-65
2022/09/21 06:19:27;;;;;;;0.17;0.17;;;16.10;75.90;;;;;;3987619;29;20059;-67
2022/09/21 06:21:50;;;;;;;0.00;0.00;;;16.10;75.90;;;;;;3999264;29;20397;-65
2022/09/21 06:24:30;;;;;;;0.10;0.10;;;16.10;75.80;;;;;;3987251;29;20521;-66
2022/09/21 06:27:11;;;;;;;0.00;0.00;;;16.00;75.70;;;;;;3996880;29;20158;-65
2022/09/21 06:29:33;;;;;;;0.00;0.00;;;16.00;75.70;;;;;;3986964;29;20090;-66
2022/09/21 06:31:55;;;;;;;0.00;0.00;;;16.00;75.60;;;;;;3973977;29;20396;-65
2022/09/21 06:34:38;;;;;;;0.00;0.00;;;16.00;75.60;;;;;;3972241;29;20069;-65
2022/09/21 06:37:00;;;;;;;0.00;0.00;;;16.00;75.50;;;;;;3983826;29;20077;-65
2022/09/21 06:39:22;;;;;;;0.00;0.00;;;16.00;75.50;;;;;;3986228;29;20065;-64
2022/09/21 06:41:43;;;;;;;0.00;0.00;;;16.00;75.60;;;;;;3987095;29;20095;-65
2022/09/21 06:44:06;;;;;;;0.00;0.00;;;16.00;75.80;;;;;;3986937;29;20058;-65
2022/09/21 06:46:47;;;;;;;0.00;0.00;;;16.00;75.80;;;;;;3987111;29;20129;-65
2022/09/21 06:49:28;;;;;;;0.00;0.00;;;16.00;75.80;;;;;;3986528;29;20057;-65
2022/09/21 06:51:51;;;;;;;0.00;0.00;;;15.90;75.80;;;;;;3986361;29;20054;-66
2022/09/21 06:54:32;;;;;;;0.00;0.00;;;15.90;75.90;;;;;;3987464;29;20223;-66
2022/09/21 06:56:54;;;;;;;0.00;0.00;;;15.90;76.00;;;;;;3984115;29;20057;-65
2022/09/21 06:59:20;;;;;;;0.00;0.00;;;15.90;76.00;;;;;;3987277;29;20546;-65
2022/09/21 07:02:02;;;;;;;0.00;0.00;;;15.90;76.10;;;;;;3986508;29;20078;-66
2022/09/21 07:04:24;;;;;;;0.00;0.00;;;15.90;76.10;;;;;;3986750;29;20060;-65
2022/09/21 07:07:07;;;;;;;0.00;0.00;;;15.90;76.10;;;;;;3984389;29;20222;-65
2022/09/21 07:09:29;;;;;;;0.22;0.22;;;16.00;76.20;;;;;;3986752;29;20482;-65
2022/09/21 07:12:31;;;;;;;0.00;0.00;;;16.00;76.40;;;;;;3986086;29;20061;-69
2022/09/21 07:15:12;;;;;;;0.10;0.10;;;16.00;76.50;;;;;;3986488;29;20513;-69
2022/09/21 07:17:53;;;;;;;0.00;0.00;;;16.10;76.60;;;;;;3986246;29;20081;-69
2022/09/21 07:20:47;;;;;;;0.00;0.00;;;16.10;77.50;;;;;;3995096;29;20497;-68
2022/09/21 07:23:29;;;;;;;0.00;0.00;;;16.20;76.70;;;;;;3996106;29;20204;-69
2022/09/21 07:25:51;;;;;;;0.00;0.00;;;16.20;76.80;;;;;;3986113;29;20061;-69
2022/09/21 07:28:32;;;;;;;0.00;0.00;;;16.30;76.80;;;;;;3982284;29;20560;-71
2022/09/21 07:30:55;;;;;;;0.00;0.00;;;16.30;76.90;;;;;;3986526;29;20082;-70
2022/09/21 07:33:17;;;;;;;0.00;0.00;;;16.40;76.90;;;;;;3987060;29;20432;-71
2022/09/21 07:35:39;;;;;;;0.00;0.00;;;16.40;76.90;;;;;;3986052;29;20054;-65
2022/09/21 07:38:03;;;;;;;0.00;0.00;;;16.40;76.80;;;;;;3986455;29;20164;-64
2022/09/21 07:40:45;;;;;;;0.00;0.00;;;16.40;76.90;;;;;;3985442;29;20061;-64
2022/09/21 07:43:27;;;;;;;1.65;1.55;;;16.50;76.90;;;;;;3986810;29;20500;-64
2022/09/21 07:46:09;;;;;;;0.00;0.00;;;16.50;76.90;;;;;;3980678;29;20057;-65
2022/09/21 07:48:53;;;;;;;0.00;0.00;;;16.60;76.90;;;;;;3971245;29;20138;-64
2022/09/21 07:51:34;;;;;;;0.25;0.25;;;16.60;77.70;;;;;;3978897;29;20057;-65
2022/09/21 07:53:57;;;;;;;0.10;0.10;;;16.70;76.70;;;;;;3986466;29;20416;-65
2022/09/21 07:56:20;;;;;;;0.00;0.00;;;16.70;76.60;;;;;;3985289;29;20054;-65
2022/09/21 08:01:41;;;;;;;0.00;0.00;;;16.80;76.40;;;;;;3986272;29;20089;-65
2022/09/21 08:04:05;;;;;;;0.00;0.00;;;16.80;76.10;;;;;;3986120;29;20066;-65
2022/09/21 08:06:46;;;;;;;0.00;0.00;;;16.80;76.00;;;;;;3986024;29;20194;-63
2022/09/21 08:09:08;;;;;;;0.00;0.00;;;16.90;75.90;;;;;;3986282;29;20108;-65
2022/09/21 08:11:51;;;;;;;0.00;0.00;;;16.90;75.70;;;;;;3985893;29;20057;-69
2022/09/21 08:14:33;;;;;;;0.00;0.00;;;16.90;75.60;;;;;;3985165;29;20053;-69
2022/09/21 08:16:55;;;;;;;0.00;0.00;;;17.00;75.60;;;;;;3985632;29;20051;-69
2022/09/21 08:19:17;;;;;;;0.00;0.00;;;17.00;75.50;;;;;;3986118;29;20092;-69
2022/09/21 08:21:39;;;;;;;0.05;0.05;;;17.00;75.40;;;;;;3997031;29;20376;-69
2022/09/21 08:24:02;;;;;;;0.10;0.10;;;17.00;75.30;;;;;;3985730;29;20078;-71
2022/09/21 08:26:24;;;;;;;0.00;0.00;;;17.10;75.30;;;;;;3985489;29;20130;-66
2022/09/21 08:29:07;;;;;;;0.00;0.00;;;17.10;75.10;;;;;;3986184;29;20061;-65
2022/09/21 08:31:48;;;;;;;0.00;0.00;;;17.10;75.00;;;;;;3967501;29;20074;-65
2022/09/21 08:34:29;;;;;;;0.00;0.00;;;17.10;74.90;;;;;;3984970;29;20057;-65
2022/09/21 08:36:51;;;;;;;0.03;0.03;;;17.10;75.00;;;;;;3983606;29;20054;-68
2022/09/21 08:39:36;;;;;;;0.00;0.00;;;17.20;74.80;;;;;;3970709;29;20061;-69
2022/09/21 08:42:26;;;;;;;;;;;17.20;74.70;;;;;;3969994;29;20212;-70
2022/09/21 08:45:16;;;;;;;0.57;0.57;;;17.20;74.60;;;;;;3984556;29;19940;-69
2022/09/21 08:47:59;;;;;;;0.00;0.00;;;17.20;75.30;;;;;;3978594;29;20467;-69
2022/09/21 08:50:32;;;;;;;0.00;0.00;;;17.20;74.50;;;;;;3970308;29;20050;-70
2022/09/21 08:53:17;;;;;;;0.00;0.00;;;17.20;74.40;;;;;;3970539;29;20058;-68
2022/09/21 08:55:58;;;;;;;0.00;0.00;;;17.20;74.30;;;;;;3968756;29;20205;-68
2022/09/21 08:58:40;;;;;;;0.00;0.00;;;17.20;74.20;;;;;;3971161;29;20066;-69
2022/09/21 09:01:47;;;;;;;7.57;1.85;;;17.20;74.20;;;;;;3970605;29;20054;-68
2022/09/21 09:04:43;;;;;;;0.00;0.00;;;17.20;74.10;;;;;;3985432;29;20126;-68
2022/09/21 09:07:44;;;;;;;0.10;0.10;;;17.30;73.90;;;;;;3986828;29;20054;-67
2022/09/21 09:10:24;;;;;;;0.00;0.00;;;17.30;73.80;;;;;;3988928;29;20077;-67
2022/09/21 09:12:57;;;;;;;0.00;0.00;;;17.30;73.60;;;;;;3972409;29;20469;-66
2022/09/21 09:15:39;;;;;;;0.00;0.00;;;17.40;73.40;;;;;;3973640;29;20218;-67
2022/09/21 09:18:08;;;;;;;0.10;0.10;;;17.40;73.20;;;;;;3973462;29;20066;-60
2022/09/21 09:20:34;;;;;;;0.00;0.00;;;17.50;73.80;;;;;;3987891;29;20391;-60
2022/09/21 09:23:22;;;;;;;0.00;0.00;;;17.50;73.70;;;;;;3988544;29;20434;-60
2022/09/21 09:26:07;;;;;;;0.43;0.43;;;17.60;73.30;;;;;;3972276;29;20065;-61
2022/09/21 09:28:51;;;;;;;0.10;0.10;;;17.60;73.80;;;;;;3979560;29;20064;-61
2022/09/21 09:31:18;;;;;;;0.00;0.00;;;17.60;74.60;;;;;;3973849;29;20342;-60
2022/09/21 09:34:09;;;;;;;0.00;0.00;;;17.70;75.20;;;;;;3987773;29;20418;-60
2022/09/21 09:36:33;;;;;;;0.00;0.00;;;17.70;75.60;;;;;;3973207;29;20495;-61
2022/09/21 09:39:34;;;;;;;0.00;0.00;;;17.70;75.40;;;;;;3968197;29;20070;-61
2022/09/21 09:42:25;;;;;;;5.23;1.90;;;17.80;75.50;;;;;;3988214;29;20115;-60
2022/09/21 09:45:30;;;;;;;0.10;0.10;;;17.80;75.60;;;;;;3987642;29;20070;-62
2022/09/21 09:48:29;;;;;;;0.00;0.00;;;17.80;75.50;;;;;;3972988;29;20554;-61
2022/09/21 09:50:53;;;;;;;30.80;1.45;;;17.80;75.50;;;;;;3987913;29;20459;-61
2022/09/21 09:53:18;;;;;;;0.00;0.00;;;17.80;75.60;;;;;;3987454;29;20106;-66
2022/09/21 09:56:01;;;;;;;0.77;0.77;;;17.90;75.80;;;;;;3987612;29;20061;-67
2022/09/21 09:58:28;;;;;;;0.00;0.00;;;17.90;75.60;;;;;;3987898;29;20774;-66
2022/09/21 10:00:52;;;;;;;0.00;0.00;;;17.90;75.30;;;;;;3988253;29;20051;-66
2022/09/21 10:03:34;;;;;;;0.00;0.00;;;17.90;75.20;;;;;;3987061;29;20065;-61
2022/09/21 10:05:58;;;;;;;0.30;0.08;;;18.00;75.40;;;;;;3986852;29;20520;-66
2022/09/21 10:08:29;;;;;;;0.00;0.00;;;17.90;75.20;;;;;;3987811;29;20050;-61
2022/09/21 10:10:51;;;;;;;0.00;0.00;;;18.00;75.00;;;;;;3999460;29;20061;-59
2022/09/21 10:13:35;;;;;;;0.00;0.00;;;18.00;74.70;;;;;;3987529;29;20207;-60
2022/09/21 10:16:20;;;;;;;8.88;1.85;;;18.00;74.30;;;;;;3987655;29;20413;-67
2022/09/21 10:19:01;;;;;;;0.40;0.40;;;18.00;74.10;;;;;;3987077;29;20158;-67
2022/09/21 10:21:45;;;;;;;0.35;0.35;;;18.00;73.80;;;;;;3987326;29;20529;-67
2022/09/21 10:24:33;;;;;;;0.00;0.00;;;18.00;73.70;;;;;;3987077;29;20071;-62
2022/09/21 10:27:02;;;;;;;0.00;0.00;;;18.00;73.60;;;;;;3987169;29;20167;-61
2022/09/21 10:29:32;;;;;;;0.00;0.00;;;18.00;73.40;;;;;;3987407;29;20169;-66
2022/09/21 10:32:25;;;;;;;0.00;0.00;;;18.00;73.00;;;;;;3974773;29;20061;-66
2022/09/21 10:35:12;;;;;;;0.00;0.00;;;18.00;72.80;;;;;;3987418;29;20054;-66
2022/09/21 10:37:39;;;;;;;0.00;0.00;;;18.00;72.80;;;;;;3971105;29;20050;-66
2022/09/21 10:40:26;;;;;;;0.00;0.00;;;18.10;72.90;;;;;;3970061;29;20122;-67
2022/09/21 10:42:50;;;;;;;0.00;0.00;;;18.10;71.80;;;;;;3970313;29;20467;-67
2022/09/21 10:45:33;;;;;;;0.00;0.00;;;18.20;72.50;;;;;;3970346;29;20149;-65
2022/09/21 10:48:18;;;;;;;0.00;0.00;;;18.20;72.30;;;;;;3969339;29;20065;-66
2022/09/21 10:50:42;;;;;;;0.00;0.00;;;18.20;72.20;;;;;;3969743;29;20145;-65
2022/09/21 10:53:28;;;;;;;0.00;0.00;;;18.20;72.30;;;;;;3970894;29;20049;-65
2022/09/21 10:56:17;;;;;;;0.00;0.00;;;18.30;71.20;;;;;;3969806;29;20222;-66
2022/09/21 10:58:40;;;;;;;0.00;0.00;;;18.30;70.70;;;;;;3970064;29;20047;-66
2022/09/21 11:01:11;;;;;;;0.10;0.10;;;18.30;70.70;;;;;;3970295;29;20067;-66
2022/09/21 11:03:49;;;;;;;0.00;0.00;;;18.40;70.80;;;;;;3969980;29;20058;-66
2022/09/21 11:06:16;;;;;;;0.00;0.00;;;18.40;70.70;;;;;;3969662;29;20063;-65
2022/09/21 11:09:02;;;;;;;0.00;0.00;;;18.40;70.50;;;;;;3969602;29;20073;-65
2022/09/21 11:11:40;;;;;;;0.00;0.00;;;18.50;70.50;;;;;;3969769;29;20422;-66
2022/09/21 11:14:12;;;;;;;0.20;0.20;;;18.50;70.30;;;;;;3969958;29;20149;-60
2022/09/21 11:16:40;;;;;;;0.50;0.50;;;18.50;70.30;;;;;;3969488;29;20065;-60
2022/09/21 11:19:29;;;;;;;0.00;0.00;;;18.60;70.10;;;;;;3971173;29;20577;-60
2022/09/21 11:22:17;;;;;;;1.65;1.17;;;18.60;69.70;;;;;;3969649;29;20063;-60
2022/09/21 11:24:49;;;;;;;0.00;0.00;;;18.60;69.70;;;;;;3969578;29;20108;-60
2022/09/21 11:27:15;;;;;;;0.60;0.60;;;18.70;69.90;;;;;;3980262;29;20051;-60
2022/09/21 11:30:01;;;;;;;0.00;0.00;;;18.70;69.50;;;;;;3969545;29;20065;-60
2022/09/21 11:33:01;;;;;;;0.00;0.00;;;18.70;69.10;;;;;;3969584;29;20383;-60
2022/09/21 11:35:53;;;;;;;0.00;0.00;;;18.70;69.30;;;;;;3968952;29;20091;-60
2022/09/21 11:38:31;;;;;;;0.00;0.00;;;18.80;69.00;;;;;;3968884;29;20082;-60
2022/09/21 11:41:45;;;;;;;0.00;0.00;;;18.80;68.60;;;;;;3969014;29;20490;-60
2022/09/21 11:44:48;;;;;;;0.00;0.00;;;18.80;68.60;;;;;;3984364;29;20061;-60
2022/09/21 11:47:21;;;;;;;0.00;0.00;;;18.80;68.70;;;;;;3970416;29;20066;-65
2022/09/21 11:50:19;;;;;;;2.38;1.38;;;18.80;68.70;;;;;;3969193;29;20081;-65
2022/09/21 11:53:13;;;;;;;0.00;0.00;;;18.90;68.80;;;;;;3970405;29;20058;-66
2022/09/21 11:56:05;;;;;;;0.00;0.00;;;18.90;69.50;;;;;;3968764;29;20058;-65
2022/09/21 11:58:59;;;;;;;0.00;0.00;;;18.90;68.60;;;;;;3968807;29;20115;-65
2022/09/21 12:01:38;;;;;;;0.00;0.00;;;19.00;68.40;;;;;;3968898;29;20047;-65
2022/09/21 12:04:36;;;;;;;0.00;0.00;;;19.00;68.60;;;;;;3968421;29;20164;-65
2022/09/21 12:07:13;;;;;;;2.08;0.95;;;19.00;67.20;;;;;;3977757;29;20470;-65
2022/09/21 12:10:14;;;;;;;0.00;0.00;;;19.00;68.40;;;;;;3985915;29;20098;-66
2022/09/21 12:13:00;;;;;;;0.10;0.10;;;19.00;67.50;;;;;;3986252;29;20077;-63
2022/09/21 12:15:49;;;;;;;0.00;0.00;;;19.10;67.30;;;;;;3984892;29;20513;-64
2022/09/21 12:18:17;;;;;;;0.00;0.00;;;19.10;66.80;;;;;;3985939;29;20046;-66
2022/09/21 12:21:07;;;;;;;0.00;0.00;;;19.20;67.30;;;;;;3994683;29;20603;-65
2022/09/21 12:23:43;;;;;;;0.00;0.00;;;19.20;67.00;;;;;;3985226;29;20054;-65
2022/09/21 12:26:28;;;;;;;0.00;0.00;;;19.20;67.30;;;;;;3985467;29;20129;-65
2022/09/21 12:28:53;;;;;;;0.00;0.00;;;19.20;66.80;;;;;;3997875;29;20053;-65
2022/09/21 12:31:23;;;;;;;0.22;0.22;;;19.20;67.00;;;;;;3985911;29;20395;-65
2022/09/21 12:34:09;;;;;;;0.00;0.00;;;19.30;67.40;;;;;;3986028;29;20061;-65
2022/09/21 12:36:36;;;;;;;0.00;0.00;;;19.30;67.70;;;;;;3985615;29;20625;-64
2022/09/21 12:39:23;;;;;;;0.00;0.00;;;19.30;67.20;;;;;;3971197;29;20053;-66
2022/09/21 12:42:10;;;;;;;0.00;0.00;;;19.30;68.70;;;;;;3985579;29;20060;-65
2022/09/21 12:44:54;;;;;;;0.00;0.00;;;19.30;67.60;;;;;;3985781;29;20110;-65
2022/09/21 12:47:22;;;;;;;0.00;0.00;;;19.40;67.80;;;;;;3996794;29;20136;-65
2022/09/21 12:50:13;;;;;;;0.00;0.00;;;19.40;67.80;;;;;;3985731;29;20075;-66
2022/09/21 12:52:36;;;;;;;0.00;0.00;;;19.40;67.70;;;;;;3985805;29;20082;-65
2022/09/21 12:55:06;;;;;;;0.00;0.00;;;19.50;68.30;;;;;;3985906;29;20077;-65
2022/09/21 12:57:52;;;;;;;0.00;0.00;;;19.50;68.70;;;;;;3970611;29;20097;-65
2022/09/21 13:01:05;;;;;;;0.20;0.20;;;19.50;68.60;;;;;;3966793;29;20493;-65
2022/09/21 13:03:34;;;;;;;0.00;0.00;;;19.50;68.60;;;;;;3984147;29;20497;-65
2022/09/21 13:06:40;;;;;;;0.00;0.00;;;19.50;69.00;;;;;;3955771;29;20078;-65
2022/09/21 13:09:23;;;;;;;0.00;0.00;;;19.60;69.10;;;;;;3968433;29;20119;-65
2022/09/21 13:12:17;;;;;;;0.00;0.00;;;19.50;69.10;;;;;;3957140;29;20066;-65
2022/09/21 13:15:02;;;;;;;0.00;0.00;;;19.60;69.10;;;;;;3975093;29;20138;-65
2022/09/21 13:17:29;;;;;;;0.00;0.00;;;19.60;68.70;;;;;;3985542;29;20046;-65
2022/09/21 13:20:19;;;;;;;0.00;0.00;;;19.60;68.90;;;;;;3984579;29;20058;-65
2022/09/21 13:23:01;;;;;;;0.00;0.00;;;19.70;69.20;;;;;;3985694;29;20506;-65
2022/09/21 13:25:47;;;;;;;1.27;1.17;;;19.70;69.30;;;;;;3970902;29;20092;-65
2022/09/21 13:28:59;;;;;;;0.00;0.00;;;19.70;68.20;;;;;;3970966;29;20050;-65
2022/09/21 13:31:51;;;;;;;0.00;0.00;;;19.80;68.90;;;;;;3970575;29;20384;-65
2022/09/21 13:34:35;;;;;;;0.00;0.00;;;19.80;69.20;;;;;;3979569;29;20053;-65
2022/09/21 13:37:29;;;;;;;0.00;0.00;;;19.80;69.20;;;;;;3985575;29;20138;-64
2022/09/21 13:40:39;;;;;;;0.00;0.00;;;19.80;69.30;;;;;;3984933;29;20474;-61
2022/09/21 13:43:21;;;;;;;0.00;0.00;;;19.90;69.20;;;;;;3985505;29;20042;-61